Terminal Aerodrome Forecast
Issued by NWS

Home | Current Version | Previous Version | Text Only | Print | Product List | Glossary On
Versions: 1 2 3 4 5 6 7 8 9 10 11 12 13 14 15 16 17 18 19 20 21 22 23 24 25 26 27 28 29 30
000
FTUS45 KPSR 251133
TAFIWA
TAF
KIWA 251133Z 2512/2612 12006KT P6SM SCT090 SCT200
     FM251800 21008KT P6SM SCT060 BKN090
     FM252200 25015G25KT P6SM SCT040 BKN070
     FM260200 27022G32KT P6SM SCT040 BKN070
     FM260400 26014G22KT P6SM VCSH SCT040 OVC070
     FM260800 VRB06KT P6SM -TSRA SCT020 BKN030 OVC050CB
      AMD LTD TO CLD VIS AND WIND TIL 251300=

USA.gov is the U.S. government's official web portal to all federal, state and local government web resources and services.